Terminal Aerodrome Forecast
Issued by NWS Spokane, WA

Home | Current Version | Previous Version | Text Only | Print | Product List | Glossary On
Versions: 1 2 3 4 5 6 7 8 9 10 11 12 13 14 15 16 17 18 19 20 21 22 23 24 25 26 27 28 29 30 31 32 33 34 35 36 37 38 39 40 41 42 43 44 45 46 47 48 49 50
000
FTUS46 KOTX 272327
TAFEAT
TAF
KEAT 272327Z 2800/2824 VRB03KT 6SM BR SCT050 BKN150
     FM280700 VRB03KT 2SM BR OVC007
     FM281200 00000KT 1/2SM FG OVC002
     FM281800 VRB03KT 4SM BR SCT005 OVC100
     FM282200 30009KT P6SM SCT080 OVC120
      AMD LTD TO CLD AND WIND=

USA.gov is the U.S. government's official web portal to all federal, state and local government web resources and services.